Observation data for Anton on 11/16/2019      Previous  Date       Current Mesonet Observations  Soil Data  Daily Summary Page  Observations in Plain Language
KAOS 160600Z 18005KT 04/M02 A3018 RMK A01 T00351018  RH  069%=      5-min Rain = 0
KAOS 160605Z 18005KT 04/M02 A3018 RMK A01 T00371017  RH  069%=      5-min Rain = 0
KAOS 160610Z 19005KT 04/M02 A3018 RMK A01 T00381017  RH  068%=      5-min Rain = 0
KAOS 160615Z 18005KT 04/M02 A3018 RMK A01 T00381017  RH  068%=      5-min Rain = 0
KAOS 160620Z 18006KT 04/M02 A3018 RMK A01 T00381016  RH  068%=      5-min Rain = 0
KAOS 160625Z 19006KT 04/M02 A3017 RMK A01 T00391016  RH  068%=      5-min Rain = 0
KAOS 160630Z 19006KT 04/M02 A3017 RMK A01 T00391016  RH  068%=      5-min Rain = 0
KAOS 160635Z 19006KT 04/M02 A3017 RMK A01 T00391015  RH  068%=      5-min Rain = 0
KAOS 160640Z 19006KT 04/M01 A3017 RMK A01 T00401014  RH  068%=      5-min Rain = 0
KAOS 160645Z 19007KT 04/M01 A3017 RMK A01 T00411014  RH  068%=      5-min Rain = 0
KAOS 160650Z 19007KT 04/M01 A3016 RMK A01 T00431013  RH  068%=      5-min Rain = 0
KAOS 160655Z 19007KT 05/M01 A3016 RMK A01 T00461012  RH  067%=      5-min Rain = 0
KAOS 160700Z 19007KT 05/M01 A3016 RMK A01 T00461012  RH  067%=      5-min Rain = 0
KAOS 160705Z 19007KT 05/M01 A3016 RMK A01 T00451012  RH  067%=      5-min Rain = 0
KAOS 160710Z 19007KT 04/M01 A3016 RMK A01 T00441013  RH  067%=      5-min Rain = 0
KAOS 160715Z 19007KT 04/M01 A3016 RMK A01 T00421013  RH  068%=      5-min Rain = 0
KAOS 160720Z 19007KT 04/M01 A3016 RMK A01 T00401014  RH  069%=      5-min Rain = 0
KAOS 160725Z 19007KT 04/M01 A3016 RMK A01 T00381014  RH  069%=      5-min Rain = 0
KAOS 160730Z 20007KT 04/M02 A3015 RMK A01 T00351016  RH  070%=      5-min Rain = 0
KAOS 160735Z 20007KT 04/M02 A3015 RMK A01 T00351015  RH  071%=      5-min Rain = 0
KAOS 160740Z 20006KT 04/M02 A3015 RMK A01 T00351015  RH  071%=      5-min Rain = 0
KAOS 160745Z 20006KT 03/M02 A3015 RMK A01 T00341016  RH  071%=      5-min Rain = 0
KAOS 160750Z 20007KT 03/M02 A3015 RMK A01 T00341016  RH  070%=      5-min Rain = 0
KAOS 160755Z 20007KT 03/M02 A3015 RMK A01 T00331016  RH  071%=      5-min Rain = 0
KAOS 160800Z 20007KT 03/M01 A3015 RMK A01 T00341014  RH  071%=      5-min Rain = 0
KAOS 160805Z 20007KT 03/M02 A3015 RMK A01 T00321015  RH  072%=      5-min Rain = 0
KAOS 160810Z 19006KT 03/M02 A3015 RMK A01 T00301016  RH  072%=      5-min Rain = 0
KAOS 160815Z 19006KT 03/M02 A3015 RMK A01 T00271017  RH  073%=      5-min Rain = 0
KAOS 160820Z 20005KT 03/M02 A3015 RMK A01 T00261017  RH  074%=      5-min Rain = 0
KAOS 160825Z 20005KT 03/M02 A3015 RMK A01 T00281015  RH  074%=      5-min Rain = 0
KAOS 160830Z 19005KT 03/M02 A3015 RMK A01 T00301015  RH  073%=      5-min Rain = 0
KAOS 160835Z 19004KT 03/M02 A3015 RMK A01 T00311015  RH  072%=      5-min Rain = 0
KAOS 160840Z 18004KT 03/M02 A3015 RMK A01 T00311016  RH  072%=      5-min Rain = 0
KAOS 160845Z 18004KT 03/M02 A3015 RMK A01 T00311015  RH  072%=      5-min Rain = 0
KAOS 160850Z 19004KT 03/M02 A3014 RMK A01 T00301016  RH  072%=      5-min Rain = 0
KAOS 160855Z 18004KT 03/M02 A3014 RMK A01 T00281017  RH  073%=      5-min Rain = 0
KAOS 160900Z 19004KT 03/M02 A3014 RMK A01 T00261017  RH  074%=      5-min Rain = 0
KAOS 160905Z 19005KT 02/M02 A3014 RMK A01 T00241018  RH  074%=      5-min Rain = 0
KAOS 160910Z 19005KT 02/M02 A3014 RMK A01 T00211019  RH  076%=      5-min Rain = 0
KAOS 160915Z 18005KT 02/M02 A3013 RMK A01 T00201019  RH  076%=      5-min Rain = 0
KAOS 160920Z 18005KT 02/M02 A3013 RMK A01 T00191018  RH  077%=      5-min Rain = 0
KAOS 160925Z 17004KT 02/M02 A3013 RMK A01 T00171020  RH  077%=      5-min Rain = 0
KAOS 160930Z 18004KT 01/M02 A3013 RMK A01 T00131023  RH  078%=      5-min Rain = 0
KAOS 160935Z 18005KT 01/M02 A3013 RMK A01 T00111022  RH  079%=      5-min Rain = 0
KAOS 160940Z 18005KT 01/M02 A3013 RMK A01 T00111021  RH  080%=      5-min Rain = 0
KAOS 160945Z 18006KT 01/M02 A3013 RMK A01 T00111020  RH  080%=      5-min Rain = 0
KAOS 160950Z 18006KT 01/M02 A3013 RMK A01 T00101021  RH  081%=      5-min Rain = 0
KAOS 160955Z 18006KT 01/M02 A3013 RMK A01 T00091021  RH  081%=      5-min Rain = 0
KAOS 161000Z 18006KT 01/M02 A3013 RMK A01 T00091020  RH  081%=      5-min Rain = 0
KAOS 161005Z 18006KT 01/M02 A3013 RMK A01 T00091020  RH  081%=      5-min Rain = 0
KAOS 161010Z 18005KT 01/M02 A3013 RMK A01 T00081021  RH  081%=      5-min Rain = 0
KAOS 161015Z 18005KT 01/M02 A3013 RMK A01 T00071022  RH  082%=      5-min Rain = 0
KAOS 161020Z 18005KT 00/M02 A3012 RMK A01 T00041023  RH  082%=      5-min Rain = 0
KAOS 161025Z 18005KT 00/M02 A3012 RMK A01 T00031023  RH  083%=      5-min Rain = 0
KAOS 161030Z 19005KT 01/M02 A3012 RMK A01 T00051021  RH  083%=      5-min Rain = 0
KAOS 161035Z 19005KT 01/M02 A3012 RMK A01 T00051021  RH  083%=      5-min Rain = 0
KAOS 161040Z 19006KT 01/M02 A3012 RMK A01 T00071020  RH  083%=      5-min Rain = 0
KAOS 161045Z 20005KT 01/M02 A3012 RMK A01 T00071021  RH  082%=      5-min Rain = 0
KAOS 161050Z 20004KT 01/M02 A3012 RMK A01 T00051021  RH  083%=      5-min Rain = 0
KAOS 161055Z 20005KT 01/M02 A3012 RMK A01 T00061019  RH  084%=      5-min Rain = 0
KAOS 161100Z 20004KT 01/M02 A3012 RMK A01 T00081019  RH  083%=      5-min Rain = 0
KAOS 161105Z 19004KT 01/M02 A3012 RMK A01 T00081019  RH  083%=      5-min Rain = 0
KAOS 161110Z 18003KT 01/M02 A3012 RMK A01 T00071020  RH  083%=      5-min Rain = 0
KAOS 161115Z 18003KT 01/M02 A3012 RMK A01 T00071019  RH  084%=      5-min Rain = 0
KAOS 161120Z 19003KT 01/M02 A3012 RMK A01 T00081019  RH  083%=      5-min Rain = 0
KAOS 161125Z 19003KT 01/M02 A3012 RMK A01 T00071020  RH  083%=      5-min Rain = 0
KAOS 161130Z 19003KT 01/M02 A3012 RMK A01 T00061020  RH  084%=      5-min Rain = 0
KAOS 161135Z 20003KT 01/M02 A3012 RMK A01 T00061019  RH  084%=      5-min Rain = 0
KAOS 161140Z 19003KT 01/M02 A3011 RMK A01 T00071018  RH  084%=      5-min Rain = 0
KAOS 161145Z 19003KT 01/M02 A3012 RMK A01 T00071018  RH  084%=      5-min Rain = 0
KAOS 161150Z 18003KT 01/M02 A3012 RMK A01 T00061019  RH  084%=      5-min Rain = 0
KAOS 161155Z 17003KT 00/M02 A3012 RMK A01 T00021023  RH  084%=      5-min Rain = 0
KAOS 161200Z 16004KT M00/M03 A3012 RMK A01 T10031027  RH  084%=      5-min Rain = 0
KAOS 161205Z 16004KT M01/M03 A3012 RMK A01 T10051028  RH  085%=      5-min Rain = 0
KAOS 161210Z 17004KT M00/M03 A3012 RMK A01 T10041025  RH  086%=      5-min Rain = 0
KAOS 161215Z 17004KT M00/M02 A3012 RMK A01 T10021024  RH  086%=      5-min Rain = 0
KAOS 161220Z 17005KT M00/M02 A3011 RMK A01 T10011024  RH  086%=      5-min Rain = 0
KAOS 161225Z 15004KT M00/M03 A3011 RMK A01 T10021025  RH  085%=      5-min Rain = 0
KAOS 161230Z 15004KT M00/M03 A3012 RMK A01 T10031026  RH  085%=      5-min Rain = 0
KAOS 161235Z 16004KT M01/M03 A3011 RMK A01 T10051026  RH  086%=      5-min Rain = 0
KAOS 161240Z 15005KT M01/M03 A3011 RMK A01 T10051026  RH  087%=      5-min Rain = 0
KAOS 161245Z 15005KT M00/M02 A3011 RMK A01 T10041024  RH  087%=      5-min Rain = 0
KAOS 161250Z 16006KT M00/M02 A3011 RMK A01 T10011021  RH  087%=      5-min Rain = 0
KAOS 161255Z 16006KT M00/M02 A3011 RMK A01 T10011022  RH  087%=      5-min Rain = 0
KAOS 161300Z 16006KT M00/M02 A3011 RMK A01 T10021023  RH  087%=      5-min Rain = 0
KAOS 161305Z 16005KT M00/M02 A3011 RMK A01 T10021022  RH  087%=      5-min Rain = 0
KAOS 161310Z 17005KT M00/M02 A3011 RMK A01 T10011020  RH  088%=      5-min Rain = 0
KAOS 161315Z 16005KT 00/02 A3011 RMK A01 T00-00-20  RH  087%=      5-min Rain = 0
KAOS 161320Z 17005KT 00/02 A3012 RMK A01 T00-00-20  RH  087%=      5-min Rain = 0
KAOS 161325Z 18005KT 00/02 A3012 RMK A01 T00-00-20  RH  087%=      5-min Rain = 0
KAOS 161330Z 18004KT 00/02 A3012 RMK A01 T00-00-21  RH  087%=      5-min Rain = 0
KAOS 161335Z 19003KT M00/M02 A3012 RMK A01 T10021023  RH  087%=      5-min Rain = 0
KAOS 161340Z 19003KT M00/M02 A3012 RMK A01 T10041024  RH  087%=      5-min Rain = 0
KAOS 161345Z 19004KT M01/M02 A3012 RMK A01 T10051023  RH  088%=      5-min Rain = 0
KAOS 161350Z 19005KT M00/M02 A3012 RMK A01 T10031022  RH  088%=      5-min Rain = 0
KAOS 161355Z 20005KT M00/M02 A3012 RMK A01 T10021020  RH  088%=      5-min Rain = 0
KAOS 161400Z 20005KT 00/02 A3012 RMK A01 T00000-17  RH  089%=      5-min Rain = 0
KAOS 161405Z 20004KT 00/M01 A3012 RMK A01 T00041014  RH  088%=      5-min Rain = 0
KAOS 161410Z 20004KT 01/M01 A3012 RMK A01 T00061013  RH  088%=      5-min Rain = 0
KAOS 161415Z 20003KT 01/M01 A3012 RMK A01 T00081012  RH  087%=      5-min Rain = 0
KAOS 161420Z 19002KT 01/M01 A3012 RMK A01 T00111011  RH  086%=      5-min Rain = 0
KAOS 161425Z 19003KT 02/M01 A3012 RMK A01 T00151009  RH  085%=      5-min Rain = 0
KAOS 161430Z 18003KT 02/M01 A3012 RMK A01 T00191008  RH  084%=      5-min Rain = 0
KAOS 161435Z 19004KT 02/M01 A3012 RMK A01 T00211005  RH  083%=      5-min Rain = 0
KAOS 161440Z 19003KT 03/M00 A3012 RMK A01 T00271002  RH  082%=      5-min Rain = 0
KAOS 161445Z 18003KT 03/00 A3012 RMK A01 T003100-0  RH  081%=      5-min Rain = 0
KAOS 161450Z 19004KT 04/00 A3012 RMK A01 T00360002  RH  080%=      5-min Rain = 0
KAOS 161455Z 19005KT 04/00 A3012 RMK A01 T00400003  RH  078%=      5-min Rain = 0
KAOS 161500Z 19005KT 04/00 A3012 RMK A01 T00430004  RH  077%=      5-min Rain = 0
KAOS 161505Z 19007KT 05/01 A3012 RMK A01 T00480005  RH  075%=      5-min Rain = 0
KAOS 161510Z 20006KT 05/01 A3012 RMK A01 T00520006  RH  073%=      5-min Rain = 0
KAOS 161515Z 20007KT 06/01 A3012 RMK A01 T00550006  RH  071%=      5-min Rain = 0
KAOS 161520Z 20008KT 06/01 A3012 RMK A01 T00580006  RH  070%=      5-min Rain = 0
KAOS 161525Z 20008KT 06/01 A3012 RMK A01 T00610006  RH  069%=      5-min Rain = 0
KAOS 161530Z 21008KT 07/01 A3012 RMK A01 T00650007  RH  067%=      5-min Rain = 0
KAOS 161535Z 21008KT 07/01 A3012 RMK A01 T00690007  RH  066%=      5-min Rain = 0
KAOS 161540Z 21008KT 07/01 A3012 RMK A01 T00730008  RH  064%=      5-min Rain = 0
KAOS 161545Z 20008KT 08/01 A3011 RMK A01 T00770009  RH  063%=      5-min Rain = 0
KAOS 161550Z 20008KT 08/01 A3011 RMK A01 T00780008  RH  062%=      5-min Rain = 0
KAOS 161555Z 20007KT 08/01 A3011 RMK A01 T00820010  RH  061%=      5-min Rain = 0
KAOS 161600Z 20008KT 09/01 A3011 RMK A01 T00860010  RH  060%=      5-min Rain = 0
KAOS 161605Z 19009KT 09/01 A3011 RMK A01 T00890010  RH  058%=      5-min Rain = 0
KAOS 161610Z 20007KT 09/01 A3011 RMK A01 T00910010  RH  058%=      5-min Rain = 0
KAOS 161615Z 19007KT 10/01 A3011 RMK A01 T00960012  RH  057%=      5-min Rain = 0
KAOS 161620Z 20008KT 10/01 A3011 RMK A01 T00980011  RH  056%=      5-min Rain = 0
KAOS 161625Z 19008KT 10/01 A3011 RMK A01 T00990009  RH  054%=      5-min Rain = 0
KAOS 161630Z 19008KT 10/01 A3011 RMK A01 T01020011  RH  054%=      5-min Rain = 0
KAOS 161635Z 20008KT 11/01 A3011 RMK A01 T01080013  RH  053%=      5-min Rain = 0
KAOS 161640Z 19009KT 11/01 A301 RMK A01 T01090012  RH  052%=      5-min Rain = 0
KAOS 161645Z 18009KT 11/01 A301 RMK A01 T01130012  RH  051%=      5-min Rain = 0
KAOS 161650Z 19009KT 12/01 A301 RMK A01 T01170012  RH  049%=      5-min Rain = 0
KAOS 161655Z 18008KT 12/02 A301 RMK A01 T01230015  RH  048%=      5-min Rain = 0
KAOS 161700Z 18008KT 12/01 A301 RMK A01 T01220013  RH  048%=      5-min Rain = 0
KAOS 161705Z 19009KT 12/01 A3009 RMK A01 T01220012  RH  047%=      5-min Rain = 0
KAOS 161710Z 19009KT 13/01 A3009 RMK A01 T01250013  RH  047%=      5-min Rain = 0
KAOS 161715Z 19009KT 13/01 A3009 RMK A01 T01260012  RH  046%=      5-min Rain = 0
KAOS 161720Z 19009KT 13/01 A3009 RMK A01 T01260013  RH  046%=      5-min Rain = 0
KAOS 161725Z 19009KT 13/01 A3009 RMK A01 T01260011  RH  046%=      5-min Rain = 0
KAOS 161730Z 20008KT 13/01 A3008 RMK A01 T01280011  RH  046%=      5-min Rain = 0
KAOS 161735Z 19008KT 13/01 A3008 RMK A01 T01310013  RH  045%=      5-min Rain = 0
KAOS 161740Z 19008KT 13/01 A3007 RMK A01 T01330012  RH  044%=      5-min Rain = 0
KAOS 161745Z 19009KT 14/01 A3007 RMK A01 T01360010  RH  043%=      5-min Rain = 0
KAOS 161750Z 18009KT 14/01 A3006 RMK A01 T01390011  RH  042%=      5-min Rain = 0
KAOS 161755Z 20010KT 14/01 A3006 RMK A01 T01420008  RH  041%=      5-min Rain = 0
KAOS 161800Z 19009KT 15/01 A3006 RMK A01 T01460008  RH  040%=      5-min Rain = 0
KAOS 161805Z 19010KT 15/01 A3006 RMK A01 T01470006  RH  039%=      5-min Rain = 0
KAOS 161810Z 19008KT 15/01 A3005 RMK A01 T01510008  RH  038%=      5-min Rain = 0
KAOS 161815Z 19009KT 15/01 A3005 RMK A01 T01530008  RH  038%=      5-min Rain = 0
KAOS 161820Z 20009KT 15/01 A3005 RMK A01 T01510008  RH  038%=      5-min Rain = 0
KAOS 161825Z 18009KT 15/01 A3004 RMK A01 T01510008  RH  038%=      5-min Rain = 0
KAOS 161830Z 18009KT 15/01 A3004 RMK A01 T01510009  RH  039%=      5-min Rain = 0
KAOS 161835Z 18010KT 15/01 A3004 RMK A01 T01500010  RH  039%=      5-min Rain = 0
KAOS 161840Z 18009KT 15/01 A3003 RMK A01 T01500011  RH  039%=      5-min Rain = 0
KAOS 161845Z 17009KT 15/01 A3003 RMK A01 T01520013  RH  039%=      5-min Rain = 0
KAOS 161850Z 18010KT 15/01 A3003 RMK A01 T01510012  RH  040%=      5-min Rain = 0
KAOS 161855Z 18011KT 15/01 A3002 RMK A01 T01510012  RH  039%=      5-min Rain = 0
KAOS 161900Z 18011KT 15/01 A3002 RMK A01 T01520012  RH  039%=      5-min Rain = 0
KAOS 161905Z 18010KT 15/01 A3002 RMK A01 T01540012  RH  039%=      5-min Rain = 0
KAOS 161910Z 17012KT 16/01 A3001 RMK A01 T01580012  RH  038%=      5-min Rain = 0
KAOS 161915Z 18011KT 16/01 A3001 RMK A01 T01610014  RH  037%=      5-min Rain = 0
KAOS 161920Z 19011KT 17/01 A3001 RMK A01 T01660012  RH  036%=      5-min Rain = 0
KAOS 161925Z 18012KT 17/01 A30 RMK A01 T01650010  RH  036%=      5-min Rain = 0
KAOS 161930Z 18012KT 17/01 A30 RMK A01 T01710011  RH  034%=      5-min Rain = 0
KAOS 161935Z 18012G18KT 17/01 A30 RMK A01 T01700008  RH  034%=      5-min Rain = 0
KAOS 161940Z 18011KT 17/01 A2999 RMK A01 T01710008  RH  034%=      5-min Rain = 0
KAOS 161945Z 18012KT 17/01 A2999 RMK A01 T01730008  RH  033%=      5-min Rain = 0
KAOS 161950Z 18013KT 17/01 A2999 RMK A01 T01690005  RH  033%=      5-min Rain = 0
KAOS 161955Z 18013KT 17/01 A2999 RMK A01 T01690006  RH  034%=      5-min Rain = 0
KAOS 162000Z 18012KT 17/01 A2999 RMK A01 T01680007  RH  034%=      5-min Rain = 0
KAOS 162005Z 18015KT 17/01 A2999 RMK A01 T01660006  RH  034%=      5-min Rain = 0
KAOS 162010Z 18013KT 17/01 A2998 RMK A01 T01670006  RH  034%=      5-min Rain = 0
KAOS 162015Z 18013G18KT 17/01 A2998 RMK A01 T01690009  RH  034%=      5-min Rain = 0
KAOS 162020Z 19012KT 17/01 A2998 RMK A01 T01700009  RH  034%=      5-min Rain = 0
KAOS 162025Z 18012KT 17/01 A2998 RMK A01 T01740011  RH  034%=      5-min Rain = 0
KAOS 162030Z 18014KT 18/01 A2998 RMK A01 T01760010  RH  033%=      5-min Rain = 0
KAOS 162035Z 18012G17KT 17/01 A2998 RMK A01 T01720009  RH  034%=      5-min Rain = 0
KAOS 162040Z 18013KT 17/01 A2998 RMK A01 T01710008  RH  034%=      5-min Rain = 0
KAOS 162045Z 18013KT 17/01 A2998 RMK A01 T01740008  RH  033%=      5-min Rain = 0
KAOS 162050Z 18014KT 17/01 A2998 RMK A01 T01740007  RH  033%=      5-min Rain = 0
KAOS 162055Z 18013KT 17/00 A2997 RMK A01 T01740004  RH  032%=      5-min Rain = 0
KAOS 162100Z 18013KT 18/00 A2997 RMK A01 T01750003  RH  032%=      5-min Rain = 0
KAOS 162105Z 18013KT 18/00 A2997 RMK A01 T01760003  RH  031%=      5-min Rain = 0
KAOS 162110Z 18013KT 17/00 A2996 RMK A01 T01740003  RH  032%=      5-min Rain = 0
KAOS 162115Z 18012KT 17/00 A2996 RMK A01 T01730004  RH  032%=      5-min Rain = 0
KAOS 162120Z 18014KT 17/00 A2996 RMK A01 T01740001  RH  031%=      5-min Rain = 0
KAOS 162125Z 18012KT 18/00 A2996 RMK A01 T01800003  RH  031%=      5-min Rain = 0
KAOS 162130Z 18013KT 18/00 A2996 RMK A01 T01810004  RH  031%=      5-min Rain = 0
KAOS 162135Z 18012G18KT 18/00 A2996 RMK A01 T01780003  RH  031%=      5-min Rain = 0
KAOS 162140Z 18012KT 18/00 A2996 RMK A01 T01770004  RH  032%=      5-min Rain = 0
KAOS 162145Z 17013KT 18/01 A2996 RMK A01 T01770007  RH  032%=      5-min Rain = 0
KAOS 162150Z 17014KT 18/01 A2995 RMK A01 T01760008  RH  032%=      5-min Rain = 0
KAOS 162155Z 17013KT 18/01 A2995 RMK A01 T01770008  RH  032%=      5-min Rain = 0
KAOS 162200Z 17013KT 18/01 A2995 RMK A01 T01770009  RH  032%=      5-min Rain = 0
KAOS 162205Z 17013G18KT 18/01 A2995 RMK A01 T01790010  RH  032%=      5-min Rain = 0
KAOS 162210Z 16013G18KT 18/01 A2995 RMK A01 T01820010  RH  032%=      5-min Rain = 0
KAOS 162215Z 17014KT 18/01 A2995 RMK A01 T01820010  RH  032%=      5-min Rain = 0
KAOS 162220Z 17013G20KT 18/01 A2995 RMK A01 T01790009  RH  032%=      5-min Rain = 0
KAOS 162225Z 18013KT 18/01 A2995 RMK A01 T01810009  RH  032%=      5-min Rain = 0
KAOS 162230Z 18013KT 18/01 A2995 RMK A01 T01800009  RH  032%=      5-min Rain = 0
KAOS 162235Z 17014KT 18/01 A2995 RMK A01 T01760008  RH  033%=      5-min Rain = 0
KAOS 162240Z 18013G19KT 18/01 A2995 RMK A01 T01760006  RH  032%=      5-min Rain = 0
KAOS 162245Z 18012G17KT 18/01 A2995 RMK A01 T01750005  RH  032%=      5-min Rain = 0
KAOS 162250Z 18010KT 17/01 A2995 RMK A01 T01690005  RH  033%=      5-min Rain = 0
KAOS 162255Z 18010KT 17/01 A2996 RMK A01 T01650005  RH  034%=      5-min Rain = 0
KAOS 162300Z 18010KT 16/01 A2996 RMK A01 T01630006  RH  035%=      5-min Rain = 0
KAOS 162305Z 18008KT 16/01 A2996 RMK A01 T01610007  RH  036%=      5-min Rain = 0
KAOS 162310Z 18008KT 16/01 A2996 RMK A01 T01590007  RH  036%=      5-min Rain = 0
KAOS 162315Z 17007KT 16/01 A2996 RMK A01 T01570008  RH  037%=      5-min Rain = 0
KAOS 162320Z 17007KT 16/01 A2996 RMK A01 T01560008  RH  037%=      5-min Rain = 0
KAOS 162325Z 17007KT 15/01 A2996 RMK A01 T01540009  RH  038%=      5-min Rain = 0
KAOS 162330Z 17007KT 15/01 A2996 RMK A01 T01520011  RH  039%=      5-min Rain = 0
KAOS 162335Z 17007KT 15/01 A2996 RMK A01 T01490012  RH  040%=      5-min Rain = 0
KAOS 162340Z 17008KT 14/01 A2996 RMK A01 T01440012  RH  041%=      5-min Rain = 0
KAOS 162345Z 17008KT 14/01 A2996 RMK A01 T01400011  RH  042%=      5-min Rain = 0
KAOS 162350Z 17008KT 14/01 A2996 RMK A01 T01360010  RH  043%=      5-min Rain = 0
KAOS 162355Z 17007KT 13/01 A2996 RMK A01 T01330010  RH  044%=      5-min Rain = 0
KAOS 170000Z 17007KT 13/01 A2996 RMK A01 T01290009  RH  044%=      5-min Rain = 0
KAOS 170005Z 17008KT 13/01 A2996 RMK A01 T01280008  RH  044%=      5-min Rain = 0
KAOS 170010Z 17009KT 13/01 A2996 RMK A01 T01290007  RH  044%=      5-min Rain = 0
KAOS 170015Z 18009KT 13/01 A2996 RMK A01 T01300007  RH  043%=      5-min Rain = 0
KAOS 170020Z 17009KT 13/01 A2996 RMK A01 T01320006  RH  043%=      5-min Rain = 0
KAOS 170025Z 18009KT 13/01 A2996 RMK A01 T01300005  RH  043%=      5-min Rain = 0
KAOS 170030Z 17009KT 13/01 A2996 RMK A01 T01280005  RH  043%=      5-min Rain = 0
KAOS 170035Z 17009KT 13/01 A2996 RMK A01 T01270005  RH  044%=      5-min Rain = 0
KAOS 170040Z 17009KT 13/00 A2996 RMK A01 T01260004  RH  044%=      5-min Rain = 0
KAOS 170045Z 18009KT 12/00 A2996 RMK A01 T01240004  RH  044%=      5-min Rain = 0
KAOS 170050Z 17009KT 12/01 A2996 RMK A01 T01230005  RH  045%=      5-min Rain = 0
KAOS 170055Z 17009KT 12/01 A2996 RMK A01 T01230005  RH  045%=      5-min Rain = 0
KAOS 170100Z 17008KT 13/01 A2996 RMK A01 T01250006  RH  045%=      5-min Rain = 0
KAOS 170105Z 17008KT 13/01 A2996 RMK A01 T01250006  RH  044%=      5-min Rain = 0
KAOS 170110Z 17008KT 12/01 A2996 RMK A01 T01240006  RH  045%=      5-min Rain = 0
KAOS 170115Z 18008KT 12/01 A2997 RMK A01 T01240007  RH  045%=      5-min Rain = 0
KAOS 170120Z 18008KT 12/01 A2997 RMK A01 T01220007  RH  046%=      5-min Rain = 0
KAOS 170125Z 18007KT 12/01 A2997 RMK A01 T01200007  RH  046%=      5-min Rain = 0
KAOS 170130Z 18007KT 12/01 A2997 RMK A01 T01190008  RH  047%=      5-min Rain = 0
KAOS 170135Z 18007KT 12/01 A2997 RMK A01 T01180008  RH  047%=      5-min Rain = 0
KAOS 170140Z 18007KT 11/01 A2997 RMK A01 T01140007  RH  048%=      5-min Rain = 0
KAOS 170145Z 18008KT 11/01 A2997 RMK A01 T01100008  RH  050%=      5-min Rain = 0
KAOS 170150Z 18008KT 11/01 A2997 RMK A01 T01070008  RH  051%=      5-min Rain = 0
KAOS 170155Z 18007KT 11/01 A2997 RMK A01 T01060008  RH  052%=      5-min Rain = 0
KAOS 170200Z 18007KT 11/01 A2997 RMK A01 T01050009  RH  052%=      5-min Rain = 0
KAOS 170205Z 18006KT 10/01 A2997 RMK A01 T01040009  RH  053%=      5-min Rain = 0
KAOS 170210Z 18007KT 10/01 A2997 RMK A01 T01030009  RH  053%=      5-min Rain = 0
KAOS 170215Z 18007KT 10/01 A2997 RMK A01 T01020008  RH  053%=      5-min Rain = 0
KAOS 170220Z 18008KT 10/01 A2997 RMK A01 T01000008  RH  054%=      5-min Rain = 0
KAOS 170225Z 18008KT 10/01 A2997 RMK A01 T00970007  RH  054%=      5-min Rain = 0
KAOS 170230Z 19007KT 10/01 A2997 RMK A01 T00970008  RH  054%=      5-min Rain = 0
KAOS 170235Z 20007KT 10/01 A2997 RMK A01 T00950007  RH  055%=      5-min Rain = 0
KAOS 170240Z 20007KT 09/01 A2997 RMK A01 T00910006  RH  056%=      5-min Rain = 0
KAOS 170245Z 21007KT 09/01 A2997 RMK A01 T00890006  RH  056%=      5-min Rain = 0
KAOS 170250Z 21007KT 09/01 A2997 RMK A01 T00880005  RH  057%=      5-min Rain = 0
KAOS 170255Z 21007KT 09/01 A2997 RMK A01 T00860005  RH  057%=      5-min Rain = 0
KAOS 170300Z 21007KT 08/01 A2997 RMK A01 T00840005  RH  058%=      5-min Rain = 0
KAOS 170305Z 20006KT 08/00 A2997 RMK A01 T00830004  RH  058%=      5-min Rain = 0
KAOS 170310Z 20006KT 08/00 A2997 RMK A01 T00810003  RH  059%=      5-min Rain = 0
KAOS 170315Z 20006KT 08/00 A2997 RMK A01 T00780002  RH  059%=      5-min Rain = 0
KAOS 170320Z 20006KT 07/M00 A2997 RMK A01 T00711001  RH  061%=      5-min Rain = 0
KAOS 170325Z 20005KT 07/M00 A2997 RMK A01 T00671001  RH  063%=      5-min Rain = 0
KAOS 170330Z 19004KT 06/M00 A2997 RMK A01 T00631002  RH  064%=      5-min Rain = 0
KAOS 170335Z 18003KT 06/00 A2997 RMK A01 T00630000  RH  065%=      5-min Rain = 0
KAOS 170340Z 14004KT 06/M00 A2997 RMK A01 T00601003  RH  065%=      5-min Rain = 0
KAOS 170345Z 15006KT 06/M00 A2997 RMK A01 T00561003  RH  066%=      5-min Rain = 0
KAOS 170350Z 17006KT 06/M00 A2997 RMK A01 T00551003  RH  067%=      5-min Rain = 0
KAOS 170355Z 16007KT 05/M00 A2997 RMK A01 T00521002  RH  069%=      5-min Rain = 0
KAOS 170400Z 17007KT 06/00 A2997 RMK A01 T005600-0  RH  068%=      5-min Rain = 0
KAOS 170405Z 16005KT 06/M00 A2997 RMK A01 T00551001  RH  068%=      5-min Rain = 0
KAOS 170410Z 18005KT 06/00 A2997 RMK A01 T00570001  RH  068%=      5-min Rain = 0
KAOS 170415Z 21006KT 06/00 A2997 RMK A01 T00610000  RH  066%=      5-min Rain = 0
KAOS 170420Z 21008KT 07/00 A2997 RMK A01 T00680003  RH  064%=      5-min Rain = 0
KAOS 170425Z 21008KT 07/00 A2997 RMK A01 T00690004  RH  064%=      5-min Rain = 0
KAOS 170430Z 21008KT 07/00 A2996 RMK A01 T00670004  RH  065%=      5-min Rain = 0
KAOS 170435Z 21007KT 07/00 A2996 RMK A01 T00670004  RH  065%=      5-min Rain = 0
KAOS 170440Z 21006KT 07/01 A2997 RMK A01 T00690006  RH  065%=      5-min Rain = 0
KAOS 170445Z 20004KT 07/01 A2996 RMK A01 T00680005  RH  065%=      5-min Rain = 0
KAOS 170450Z 15003KT 06/00 A2996 RMK A01 T005700-0  RH  067%=      5-min Rain = 0
KAOS 170455Z 15002KT 06/00 A2996 RMK A01 T00570001  RH  068%=      5-min Rain = 0
KAOS 170500Z 15002KT 06/00 A2997 RMK A01 T00580002  RH  068%=      5-min Rain = 0
KAOS 170505Z 15003KT 06/00 A2997 RMK A01 T00610004  RH  068%=      5-min Rain = 0
KAOS 170510Z 16002KT 06/01 A2997 RMK A01 T00630005  RH  067%=      5-min Rain = 0
KAOS 170515Z 16001KT 06/01 A2996 RMK A01 T00640005  RH  067%=      5-min Rain = 0
KAOS 170520Z 16001KT 07/01 A2996 RMK A01 T00650006  RH  066%=      5-min Rain = 0
KAOS 170525Z 16002KT 07/01 A2996 RMK A01 T00670006  RH  066%=      5-min Rain = 0
KAOS 170530Z 18002KT 07/01 A2996 RMK A01 T00670006  RH  066%=      5-min Rain = 0
KAOS 170535Z 21001KT 06/01 A2997 RMK A01 T00640005  RH  066%=      5-min Rain = 0
KAOS 170540Z 21000KT 06/00 A2997 RMK A01 T00580002  RH  068%=      5-min Rain = 0
KAOS 170545Z 10001KT 05/00 A2997 RMK A01 T00540002  RH  070%=      5-min Rain = 0
KAOS 170550Z 10001KT 06/00 A2997 RMK A01 T00560002  RH  069%=      5-min Rain = 0
KAOS 170555Z 09002KT 05/00 A2997 RMK A01 T005200-0  RH  070%=      5-min Rain = 0

Page generated in 0.0163 seconds.